Burbank, Oklahoma
Current Conditions -  °F | °C
As of 10:53 AM on Saturday 22 Nov 2014 (Local Time) from KPNC Reporting Station
Few Clouds Few Clouds  
Wind Chill: 59°   Ceiling: Unl
Heat Index: 59°   Visibility: 10mi
Dew Point: 55°   Wind: 7mph
Humidity: 87%   Direction: 170°S
Pressure: 29.94"   Gusts: NA
Location:  36.7°N, 96.73°W
Report Text: KPNC 221653Z AUTO 17006KT 10SM FEW045 15/13 A2994 RMK AO2 SLP135 T01500128
Loading
Personal Weather Stations






























Interactive Weather Map New forecast layout! Learn more

10-Day Weather Forecast

Advertisements
Track Severe Weather on mobile